Time;durP1;ratioP1;P1;durP2;ratioP2;P2;SDS_P1;SDS_P2;PMS_P1;PMS_P2;Temp;Humidity;BMP_temperature;BMP_pressure;BME280_temperature;BME280_humidity;BME280_pressure;Samples;Min_cycle;Max_cycle;Signal;HPM_P1;HPM_P2
2023/02/27 00:00:58;;;;;;;6.85;3.65;;;0.40;99.90;;;;;;4974440;28;20035;-49
2023/02/27 00:03:45;;;;;;;5.82;3.78;;;0.40;99.90;;;;;;4972576;28;20022;-49
2023/02/27 00:06:31;;;;;;;5.03;3.45;;;0.40;99.90;;;;;;4973871;28;20027;-51
2023/02/27 00:09:17;;;;;;;6.00;3.17;;;0.40;99.90;;;;;;4976472;28;20436;-51
2023/02/27 00:12:03;;;;;;;4.72;3.28;;;0.30;99.90;;;;;;4985047;28;20468;-51
2023/02/27 00:14:50;;;;;;;6.13;3.55;;;0.30;99.90;;;;;;4980808;28;20495;-49
2023/02/27 00:17:36;;;;;;;5.57;3.47;;;0.30;99.90;;;;;;4984212;28;20027;-51
2023/02/27 00:20:22;;;;;;;6.57;3.70;;;0.30;99.90;;;;;;4982311;28;20114;-50
2023/02/27 00:23:09;;;;;;;8.80;3.83;;;0.30;99.90;;;;;;4972035;28;20031;-53
2023/02/27 00:25:55;;;;;;;7.10;3.67;;;0.30;99.90;;;;;;4970460;28;20023;-50
2023/02/27 00:28:41;;;;;;;7.13;3.72;;;0.30;99.90;;;;;;4972002;28;20031;-53
2023/02/27 00:31:27;;;;;;;4.85;3.30;;;0.30;99.90;;;;;;4963401;28;20035;-52
2023/02/27 00:34:14;;;;;;;4.55;3.40;;;0.20;99.90;;;;;;4961068;28;20035;-51
2023/02/27 00:37:00;;;;;;;5.72;3.75;;;0.20;99.90;;;;;;4970700;28;20531;-49
2023/02/27 00:39:46;;;;;;;6.00;3.47;;;0.20;99.90;;;;;;4974064;28;20023;-49
2023/02/27 00:42:33;;;;;;;5.18;3.38;;;0.20;99.90;;;;;;4963098;28;20019;-50
2023/02/27 00:45:19;;;;;;;5.63;3.50;;;0.30;99.90;;;;;;4970755;28;20053;-51
2023/02/27 00:48:05;;;;;;;10.00;3.88;;;0.40;99.90;;;;;;4970679;28;20011;-48
2023/02/27 00:50:51;;;;;;;5.50;3.42;;;0.40;99.90;;;;;;4961253;28;20054;-50
2023/02/27 00:53:37;;;;;;;6.13;3.60;;;0.50;99.90;;;;;;4958288;28;20041;-53
2023/02/27 00:56:23;;;;;;;6.00;3.45;;;0.50;99.90;;;;;;4972386;28;20682;-49
2023/02/27 00:59:09;;;;;;;5.15;3.03;;;0.60;99.90;;;;;;4970525;28;20507;-50
2023/02/27 01:01:54;;;;;;;4.90;3.05;;;0.60;99.90;;;;;;4973738;28;20085;-50
2023/02/27 01:04:41;;;;;;;6.05;3.30;;;0.70;99.90;;;;;;4965671;28;20378;-54
2023/02/27 01:07:26;;;;;;;6.97;2.92;;;0.80;99.90;;;;;;4962785;28;20023;-50
2023/02/27 01:10:12;;;;;;;7.63;3.30;;;0.80;99.90;;;;;;4972844;28;20502;-53
2023/02/27 01:12:58;;;;;;;7.25;3.33;;;0.80;99.90;;;;;;4969008;28;20027;-49
2023/02/27 01:15:44;;;;;;;5.32;3.20;;;0.80;99.90;;;;;;4972015;28;20034;-54
2023/02/27 01:18:30;;;;;;;5.80;3.47;;;0.80;99.90;;;;;;4968767;28;20085;-54
2023/02/27 01:21:16;;;;;;;4.88;3.67;;;0.80;99.90;;;;;;4967263;28;20030;-53
2023/02/27 01:24:02;;;;;;;4.68;3.03;;;0.80;99.90;;;;;;4969557;28;20238;-51
2023/02/27 01:26:51;;;;;;;5.03;3.13;;;0.80;99.90;;;;;;4971425;28;20451;-53
2023/02/27 01:29:37;;;;;;;3.92;2.83;;;0.80;99.90;;;;;;4971912;28;20395;-47
2023/02/27 01:32:23;;;;;;;7.05;3.15;;;0.70;99.90;;;;;;4972120;28;20042;-49
2023/02/27 01:35:09;;;;;;;6.05;3.80;;;0.80;99.90;;;;;;4971821;28;20607;-50
2023/02/27 01:37:55;;;;;;;9.88;4.55;;;0.90;99.90;;;;;;4965643;28;20066;-51
2023/02/27 01:40:41;;;;;;;9.98;3.55;;;0.80;99.90;;;;;;4971570;28;20031;-49
2023/02/27 01:43:27;;;;;;;15.20;6.93;;;0.70;99.90;;;;;;4969619;28;20488;-51
2023/02/27 01:46:13;;;;;;;11.43;5.03;;;0.60;99.90;;;;;;4958382;28;20036;-53
2023/02/27 01:49:05;;;;;;;5.55;3.67;;;0.60;99.90;;;;;;4972435;28;20039;-49
2023/02/27 01:51:55;;;;;;;5.80;3.15;;;0.60;99.90;;;;;;4972053;28;20023;-48
2023/02/27 01:54:42;;;;;;;5.63;3.47;;;0.60;99.90;;;;;;4972474;28;20077;-53
2023/02/27 01:57:28;;;;;;;4.72;3.10;;;0.60;99.90;;;;;;4972481;28;20058;-50
2023/02/27 02:00:15;;;;;;;5.25;3.22;;;0.70;99.90;;;;;;4954981;29;20035;-50
2023/02/27 02:03:32;;;;;;;5.20;2.92;;;0.80;99.90;;;;;;4971863;28;20042;-50
2023/02/27 02:06:17;;;;;;;;;;;0.70;99.90;;;;;;4973759;28;20105;-50
2023/02/27 02:09:05;;;;;;;3.90;2.90;;;0.80;99.90;;;;;;4973949;28;19917;-51
2023/02/27 02:11:51;;;;;;;5.20;3.13;;;1.00;99.90;;;;;;4967772;28;20511;-50
2023/02/27 02:14:37;;;;;;;7.60;3.42;;;0.90;99.90;;;;;;4972927;28;20097;-52
2023/02/27 02:17:51;;;;;;;4.55;2.80;;;0.90;99.90;;;;;;4971772;28;20031;-51
2023/02/27 02:21:21;;;;;;;6.53;3.25;;;0.90;99.90;;;;;;4953138;29;20082;-48
2023/02/27 02:24:51;;;;;;;4.35;2.97;;;0.90;99.90;;;;;;4970886;28;20023;-51
2023/02/27 02:27:51;;;;;;;5.85;3.58;;;0.90;99.90;;;;;;4973009;28;20451;-50
2023/02/27 02:30:43;;;;;;;4.82;2.97;;;1.00;99.90;;;;;;4954024;28;20027;-51
2023/02/27 02:33:32;;;;;;;4.78;2.90;;;1.00;99.90;;;;;;4964066;28;20034;-48
2023/02/27 02:36:48;;;;;;;5.18;3.10;;;1.00;99.90;;;;;;4972032;28;20119;-47
2023/02/27 02:39:53;;;;;;;4.32;3.00;;;1.10;99.90;;;;;;4971967;28;20019;-53
2023/02/27 02:42:42;;;;;;;7.38;3.75;;;1.10;99.90;;;;;;4971202;28;20114;-51
2023/02/27 02:45:59;;;;;;;3.53;2.63;;;1.10;99.90;;;;;;4972313;28;20042;-53
2023/02/27 02:48:54;;;;;;;4.57;2.90;;;1.10;99.90;;;;;;4970221;28;20372;-48
2023/02/27 02:51:51;;;;;;;4.63;3.43;;;1.10;99.90;;;;;;4977186;28;20114;-47
2023/02/27 02:54:44;;;;;;;4.25;2.75;;;1.10;99.90;;;;;;4975444;28;20265;-49
2023/02/27 02:57:36;;;;;;;3.63;2.70;;;1.20;99.90;;;;;;4975466;28;20555;-49
2023/02/27 03:00:27;;;;;;;3.50;2.63;;;1.20;99.90;;;;;;4974444;28;20038;-48
2023/02/27 03:03:27;;;;;;;3.65;2.53;;;1.20;99.90;;;;;;4974489;28;20030;-48
2023/02/27 03:06:26;;;;;;;4.15;2.70;;;1.20;99.90;;;;;;4976128;28;20053;-51
2023/02/27 03:09:23;;;;;;;4.25;3.10;;;1.20;99.90;;;;;;4961421;28;20034;-50
2023/02/27 03:12:12;;;;;;;5.65;2.83;;;1.20;99.90;;;;;;4955859;29;20110;-50
2023/02/27 03:15:05;;;;;;;4.07;2.95;;;1.20;99.90;;;;;;4956267;29;20508;-48
2023/02/27 03:18:24;;;;;;;4.50;2.97;;;1.20;99.90;;;;;;4968395;28;20027;-49
2023/02/27 03:21:17;;;;;;;4.93;3.13;;;1.20;99.90;;;;;;4956210;29;20503;-50
2023/02/27 03:24:08;;;;;;;4.15;3.05;;;1.20;99.90;;;;;;4961748;28;20030;-44
2023/02/27 03:27:01;;;;;;;6.38;2.70;;;1.20;99.90;;;;;;4975726;28;20042;-46
2023/02/27 03:29:56;;;;;;;4.63;3.03;;;1.20;99.90;;;;;;4975485;28;20038;-46
2023/02/27 03:32:51;;;;;;;6.30;3.47;;;1.20;99.90;;;;;;4975502;28;20523;-50
2023/02/27 03:35:50;;;;;;;3.97;2.75;;;1.20;99.90;;;;;;4974973;28;20038;-50
2023/02/27 03:38:51;;;;;;;4.47;3.05;;;1.10;99.90;;;;;;4974639;28;20116;-49
2023/02/27 03:41:47;;;;;;;4.07;3.13;;;1.10;99.90;;;;;;4964888;28;20507;-50
2023/02/27 03:44:41;;;;;;;4.13;3.08;;;1.10;99.90;;;;;;4975082;28;20050;-49
2023/02/27 03:47:28;;;;;;;5.95;2.83;;;1.20;99.90;;;;;;4974351;28;20042;-48
2023/02/27 03:50:15;;;;;;;6.10;3.00;;;1.20;99.90;;;;;;4975392;28;20037;-51
2023/02/27 03:53:10;;;;;;;5.10;2.88;;;1.20;99.90;;;;;;4975144;28;20031;-51
2023/02/27 03:55:57;;;;;;;4.05;2.88;;;1.20;99.90;;;;;;4974657;28;20026;-48
2023/02/27 03:58:44;;;;;;;5.00;2.70;;;1.20;99.90;;;;;;4975832;28;20035;-49
2023/02/27 04:01:30;;;;;;;4.28;2.88;;;1.20;99.90;;;;;;4974604;28;20035;-51
2023/02/27 04:04:17;;;;;;;6.22;2.90;;;1.20;99.90;;;;;;4975009;28;20027;-49
2023/02/27 04:07:30;;;;;;;4.68;3.25;;;1.30;99.90;;;;;;4973881;28;20035;-50
2023/02/27 04:10:43;;;;;;;5.30;3.85;;;1.30;99.90;;;;;;4974373;28;20023;-48
2023/02/27 04:13:38;;;;;;;5.28;3.05;;;1.30;99.90;;;;;;4974530;28;20031;-51
2023/02/27 04:16:44;;;;;;;3.55;2.83;;;1.30;99.90;;;;;;4974997;28;20106;-49
2023/02/27 04:19:51;;;;;;;6.25;3.15;;;1.20;99.90;;;;;;4974236;28;20126;-49
2023/02/27 04:22:45;;;;;;;4.45;3.28;;;1.30;99.90;;;;;;4973914;28;20027;-50
2023/02/27 04:26:13;;;;;;;5.13;3.28;;;1.30;99.90;;;;;;4975456;28;20026;-55
2023/02/27 04:29:29;;;;;;;4.47;3.20;;;1.10;99.90;;;;;;4962963;28;20031;-48
2023/02/27 04:32:37;;;;;;;4.35;3.00;;;1.00;99.90;;;;;;4971904;28;20041;-49
2023/02/27 04:35:44;;;;;;;5.43;3.13;;;1.00;99.90;;;;;;4966058;28;20027;-49
2023/02/27 04:38:43;;;;;;;5.38;3.00;;;1.00;99.90;;;;;;4973474;28;20113;-50
2023/02/27 04:41:49;;;;;;;5.50;3.20;;;1.00;99.90;;;;;;4967334;28;20054;-50
2023/02/27 04:44:37;;;;;;;6.20;3.53;;;1.00;99.90;;;;;;4957605;28;20102;-50
2023/02/27 04:47:25;;;;;;;4.38;3.17;;;1.10;99.90;;;;;;4972560;28;20415;-53
2023/02/27 04:50:18;;;;;;;4.45;3.03;;;1.10;99.90;;;;;;4974649;28;20027;-49
2023/02/27 04:53:20;;;;;;;8.00;3.40;;;1.10;99.90;;;;;;4970232;28;20030;-53
2023/02/27 04:56:14;;;;;;;4.63;3.30;;;1.20;99.90;;;;;;4973692;28;20535;-49
2023/02/27 04:59:35;;;;;;;5.00;3.42;;;1.00;99.90;;;;;;4974012;28;20031;-51
2023/02/27 05:02:27;;;;;;;5.10;3.20;;;0.90;99.90;;;;;;4973247;28;20073;-52
2023/02/27 05:05:22;;;;;;;4.40;2.97;;;1.00;99.90;;;;;;4974171;28;20035;-51
2023/02/27 05:08:16;;;;;;;4.80;3.25;;;1.00;99.90;;;;;;4963156;28;20098;-50
2023/02/27 05:11:10;;;;;;;5.55;3.40;;;1.10;99.90;;;;;;4972932;28;20031;-50
2023/02/27 05:14:14;;;;;;;6.07;3.33;;;1.00;99.90;;;;;;4973315;28;20034;-51
2023/02/27 05:17:08;;;;;;;8.48;3.70;;;1.00;99.90;;;;;;4973550;28;20041;-48
2023/02/27 05:19:54;;;;;;;7.20;3.30;;;1.00;99.90;;;;;;4973121;28;20035;-50
2023/02/27 05:22:51;;;;;;;15.85;6.90;;;1.10;99.90;;;;;;4973508;28;20038;-50
2023/02/27 05:25:47;;;;;;;6.18;3.95;;;1.10;99.90;;;;;;4972832;28;20034;-49
2023/02/27 05:28:51;;;;;;;5.18;3.60;;;1.10;99.90;;;;;;4972515;28;20095;-49
2023/02/27 05:32:01;;;;;;;6.10;3.60;;;1.00;99.90;;;;;;4968016;28;20031;-52
2023/02/27 05:35:02;;;;;;;5.60;3.15;;;1.10;99.90;;;;;;4968198;28;20106;-52
2023/02/27 05:38:12;;;;;;;9.20;4.70;;;1.10;99.90;;;;;;4972900;28;20031;-51
2023/02/27 05:41:15;;;;;;;6.18;3.83;;;1.10;99.90;;;;;;4972377;28;20530;-52
2023/02/27 05:44:17;;;;;;;5.88;3.45;;;1.10;99.90;;;;;;4971950;28;20034;-49
2023/02/27 05:47:12;;;;;;;5.50;3.67;;;1.10;99.90;;;;;;4972257;28;20030;-50
2023/02/27 05:50:28;;;;;;;7.80;3.70;;;1.10;99.90;;;;;;4972958;28;20377;-51
2023/02/27 05:53:17;;;;;;;5.07;3.28;;;1.20;99.90;;;;;;4955681;28;20534;-53
2023/02/27 05:56:05;;;;;;;5.80;3.83;;;1.20;99.90;;;;;;4973031;28;20146;-53
2023/02/27 05:59:21;;;;;;;5.63;3.88;;;1.20;99.90;;;;;;4972527;28;20119;-53
2023/02/27 06:02:06;;;;;;;5.88;3.70;;;1.10;99.90;;;;;;4972123;28;20089;-51
2023/02/27 06:04:53;;;;;;;8.13;3.67;;;1.10;99.90;;;;;;4972398;28;20106;-49
2023/02/27 06:07:39;;;;;;;6.40;3.60;;;1.10;99.90;;;;;;4973630;28;20529;-52
2023/02/27 06:10:25;;;;;;;6.47;3.80;;;1.10;99.90;;;;;;4971797;28;20038;-53
2023/02/27 06:13:11;;;;;;;6.70;4.47;;;0.90;99.90;;;;;;4972465;28;20034;-53
2023/02/27 06:15:57;;;;;;;6.15;3.80;;;0.80;99.90;;;;;;4973530;28;20106;-54
2023/02/27 06:18:43;;;;;;;4.90;3.75;;;0.90;99.90;;;;;;4967441;28;20086;-52
2023/02/27 06:21:29;;;;;;;9.93;5.75;;;0.80;99.90;;;;;;4952878;29;20106;-54
2023/02/27 06:24:15;;;;;;;9.80;4.30;;;0.90;99.90;;;;;;4975057;28;20029;-52
2023/02/27 06:27:01;;;;;;;7.68;4.20;;;0.80;99.90;;;;;;4957482;28;20027;-51
2023/02/27 06:29:47;;;;;;;5.68;3.85;;;0.80;99.90;;;;;;4960892;28;20102;-53
2023/02/27 06:32:33;;;;;;;7.25;4.15;;;0.80;99.90;;;;;;4956345;29;20039;-50
2023/02/27 06:35:20;;;;;;;8.57;4.03;;;0.90;99.90;;;;;;4960657;28;20046;-49
2023/02/27 06:38:06;;;;;;;11.88;6.03;;;0.90;99.90;;;;;;4976291;28;20031;-49
2023/02/27 06:40:52;;;;;;;9.10;5.10;;;0.90;99.90;;;;;;4975913;28;20062;-49
2023/02/27 06:43:38;;;;;;;9.98;5.13;;;0.80;99.90;;;;;;4976173;28;20030;-49
2023/02/27 06:46:24;;;;;;;6.20;4.22;;;0.80;99.90;;;;;;4974894;28;20367;-52
2023/02/27 06:49:10;;;;;;;5.93;4.45;;;0.90;99.90;;;;;;4976400;28;20117;-50
2023/02/27 06:51:56;;;;;;;5.60;3.97;;;0.90;99.90;;;;;;4975233;28;20065;-51
2023/02/27 06:54:42;;;;;;;5.35;4.28;;;1.00;99.90;;;;;;4959194;28;20083;-50
2023/02/27 06:57:28;;;;;;;6.85;3.88;;;1.00;99.90;;;;;;4975448;28;20065;-50
2023/02/27 07:00:14;;;;;;;5.57;4.30;;;1.10;99.90;;;;;;4974524;28;20031;-54
2023/02/27 07:03:03;;;;;;;6.88;4.75;;;1.10;99.90;;;;;;4975734;28;20027;-49
2023/02/27 07:05:49;;;;;;;9.30;4.60;;;1.10;99.90;;;;;;4974561;28;20396;-49
2023/02/27 07:08:35;;;;;;;7.13;4.30;;;1.00;99.90;;;;;;4974753;28;20034;-49
2023/02/27 07:11:21;;;;;;;8.93;4.85;;;1.00;99.90;;;;;;4975749;28;20033;-49
2023/02/27 07:14:07;;;;;;;7.43;4.63;;;1.10;99.90;;;;;;4976028;28;20450;-49
2023/02/27 07:16:53;;;;;;;7.03;4.78;;;1.10;99.90;;;;;;4975444;28;20415;-51
2023/02/27 07:19:39;;;;;;;8.23;4.85;;;1.20;99.90;;;;;;4975112;28;20480;-53
2023/02/27 07:22:24;;;;;;;8.13;4.50;;;1.20;99.90;;;;;;4972905;28;20038;-54
2023/02/27 07:25:10;;;;;;;8.40;5.05;;;1.30;99.90;;;;;;4956796;28;20038;-51
2023/02/27 07:27:56;;;;;;;8.90;3.80;;;1.20;99.90;;;;;;4974986;28;20038;-50
2023/02/27 07:30:42;;;;;;;5.90;4.05;;;1.20;99.90;;;;;;4975144;28;20090;-49
2023/02/27 07:33:28;;;;;;;6.65;4.20;;;1.30;99.90;;;;;;4974213;28;20035;-50
2023/02/27 07:36:14;;;;;;;5.95;4.22;;;1.20;99.90;;;;;;4974530;28;20626;-54
2023/02/27 07:39:02;;;;;;;8.48;4.60;;;1.20;99.90;;;;;;4975494;28;20093;-49
2023/02/27 07:41:48;;;;;;;7.97;4.47;;;1.10;99.90;;;;;;4974949;28;20089;-50
2023/02/27 07:44:34;;;;;;;6.63;4.55;;;1.20;99.90;;;;;;4974173;28;20058;-50
2023/02/27 07:47:20;;;;;;;6.57;4.80;;;1.00;99.90;;;;;;4975172;28;20023;-51
2023/02/27 07:50:06;;;;;;;8.57;4.63;;;1.10;99.90;;;;;;4974675;28;20026;-50
2023/02/27 07:52:52;;;;;;;8.13;4.45;;;1.00;99.90;;;;;;4975635;28;20031;-50
2023/02/27 07:55:38;;;;;;;7.18;5.10;;;0.90;99.90;;;;;;4974392;28;20118;-50
2023/02/27 07:58:24;;;;;;;8.15;4.75;;;0.90;99.90;;;;;;4974275;28;20082;-49
2023/02/27 08:01:10;;;;;;;8.13;4.50;;;0.80;99.90;;;;;;4975011;28;20155;-54
2023/02/27 08:03:56;;;;;;;7.70;4.63;;;0.90;99.90;;;;;;4974912;28;20395;-52
2023/02/27 08:06:42;;;;;;;7.65;4.88;;;1.00;99.90;;;;;;4974435;28;20030;-51
2023/02/27 08:09:29;;;;;;;6.97;5.03;;;1.10;99.90;;;;;;4973971;28;20121;-53
2023/02/27 08:12:15;;;;;;;6.13;4.13;;;1.40;99.90;;;;;;4975219;28;20039;-50
2023/02/27 08:15:01;;;;;;;6.75;4.22;;;1.30;99.90;;;;;;4955593;29;20063;-53
2023/02/27 08:17:47;;;;;;;7.70;4.07;;;1.30;99.90;;;;;;4955701;28;20090;-53
2023/02/27 08:20:33;;;;;;;5.97;4.25;;;1.40;99.90;;;;;;4969050;28;20043;-55
2023/02/27 08:23:19;;;;;;;8.07;4.47;;;1.30;99.90;;;;;;4975512;28;20526;-53
2023/02/27 08:26:05;;;;;;;9.30;4.32;;;1.50;99.90;;;;;;4973145;28;20023;-52
2023/02/27 08:28:51;;;;;;;6.78;4.20;;;1.60;99.90;;;;;;4974940;28;20035;-54
2023/02/27 08:31:37;;;;;;;8.68;4.53;;;1.50;99.90;;;;;;4971773;28;20118;-55
2023/02/27 08:34:24;;;;;;;6.93;4.28;;;1.70;99.90;;;;;;4973837;28;20102;-55
2023/02/27 08:37:10;;;;;;;10.20;4.40;;;1.90;99.90;;;;;;4967873;28;20041;-54
2023/02/27 08:39:56;;;;;;;6.32;3.75;;;2.00;99.90;;;;;;4974483;28;20514;-56
2023/02/27 08:42:42;;;;;;;5.80;3.97;;;2.00;99.90;;;;;;4974427;28;20062;-53
2023/02/27 08:45:28;;;;;;;7.78;4.05;;;1.80;99.90;;;;;;4969819;28;20522;-51
2023/02/27 08:48:15;;;;;;;9.65;4.32;;;2.00;99.90;;;;;;4967337;28;20077;-52
2023/02/27 08:51:01;;;;;;;7.55;4.05;;;2.10;99.90;;;;;;4971806;28;20105;-52
2023/02/27 08:53:47;;;;;;;8.35;4.50;;;2.20;99.90;;;;;;4972809;28;20033;-52
2023/02/27 08:56:33;;;;;;;7.63;4.50;;;2.30;99.90;;;;;;4973261;28;20019;-51
2023/02/27 08:59:19;;;;;;;6.80;4.60;;;2.30;99.90;;;;;;4971236;28;20122;-55
2023/02/27 09:02:05;;;;;;;11.07;4.90;;;2.30;99.90;;;;;;4960593;28;20035;-53
2023/02/27 09:04:52;;;;;;;7.20;4.07;;;2.40;99.90;;;;;;4972987;28;20061;-51
2023/02/27 09:07:38;;;;;;;6.35;4.32;;;2.40;99.90;;;;;;4971867;28;20022;-53
2023/02/27 09:10:24;;;;;;;8.65;4.40;;;2.40;99.90;;;;;;4971328;28;20504;-54
2023/02/27 09:13:10;;;;;;;6.95;4.25;;;2.30;99.90;;;;;;4965960;28;20027;-56
2023/02/27 09:15:56;;;;;;;10.55;4.63;;;2.40;99.90;;;;;;4971574;28;20114;-48
2023/02/27 09:18:42;;;;;;;8.75;4.45;;;2.40;99.90;;;;;;4961550;28;20038;-55
2023/02/27 09:21:28;;;;;;;6.13;4.10;;;2.40;99.90;;;;;;4967063;28;20050;-49
2023/02/27 09:24:14;;;;;;;8.40;4.20;;;2.40;99.90;;;;;;4954069;29;20468;-55
2023/02/27 09:27:00;;;;;;;7.43;4.40;;;2.40;99.90;;;;;;4968721;28;20396;-54
2023/02/27 09:29:47;;;;;;;6.60;4.40;;;2.30;99.90;;;;;;4966439;28;20032;-51
2023/02/27 09:32:33;;;;;;;6.72;4.30;;;2.20;99.90;;;;;;4968966;28;20046;-56
2023/02/27 09:35:19;;;;;;;8.35;4.20;;;2.20;99.90;;;;;;4969938;28;20036;-53
2023/02/27 09:38:05;;;;;;;8.93;4.72;;;2.20;99.90;;;;;;4971961;28;20019;-54
2023/02/27 09:40:54;;;;;;;13.93;5.80;;;2.20;99.90;;;;;;4971613;28;20066;-55
2023/02/27 09:43:46;;;;;;;7.75;4.72;;;2.20;99.90;;;;;;4970571;28;20034;-53
2023/02/27 09:46:32;;;;;;;6.85;3.90;;;2.30;99.90;;;;;;4970015;28;20027;-49
2023/02/27 09:49:23;;;;;;;8.75;4.07;;;2.40;99.90;;;;;;4969518;28;20111;-53
2023/02/27 09:52:12;;;;;;;7.53;4.13;;;2.40;99.90;;;;;;4968192;28;20027;-50
2023/02/27 09:54:59;;;;;;;9.57;4.13;;;2.50;99.90;;;;;;4970099;28;20022;-56
2023/02/27 09:57:51;;;;;;;8.40;4.72;;;2.60;99.90;;;;;;4969091;28;20102;-57
2023/02/27 10:00:45;;;;;;;11.45;5.05;;;2.50;99.90;;;;;;4968079;28;20057;-55
2023/02/27 10:04:00;;;;;;;9.18;4.78;;;2.60;99.90;;;;;;4971769;28;20470;-54
2023/02/27 10:06:58;;;;;;;8.75;4.72;;;2.40;99.90;;;;;;4955468;28;20514;-50
2023/02/27 10:10:11;;;;;;;6.60;3.92;;;2.70;99.90;;;;;;4967433;28;20023;-50
2023/02/27 10:13:17;;;;;;;10.57;3.95;;;2.80;99.90;;;;;;4970483;28;20054;-46
2023/02/27 10:16:08;;;;;;;9.45;4.15;;;3.00;99.90;;;;;;4958648;28;20037;-48
2023/02/27 10:19:12;;;;;;;7.97;4.00;;;3.00;99.90;;;;;;4969657;28;20415;-57
2023/02/27 10:22:00;;;;;;;13.00;4.00;;;3.20;99.90;;;;;;4965317;28;20070;-53
2023/02/27 10:24:55;;;;;;;9.55;3.90;;;3.30;99.90;;;;;;4973195;28;20487;-51
2023/02/27 10:27:45;;;;;;;7.32;3.97;;;3.30;99.90;;;;;;4972389;28;20045;-48
2023/02/27 10:30:31;;;;;;;8.52;3.90;;;3.60;99.90;;;;;;4972132;28;20531;-48
2023/02/27 10:33:37;;;;;;;6.20;3.05;;;3.40;99.90;;;;;;4972965;28;20034;-50
2023/02/27 10:36:24;;;;;;;6.50;3.30;;;3.30;99.90;;;;;;4976920;28;20058;-47
2023/02/27 10:39:15;;;;;;;8.80;4.15;;;3.40;99.90;;;;;;4975615;28;20031;-49
2023/02/27 10:42:08;;;;;;;6.30;3.47;;;3.40;99.90;;;;;;4958040;29;20600;-46
2023/02/27 10:44:54;;;;;;;7.15;3.83;;;3.70;99.90;;;;;;4965799;28;20038;-48
2023/02/27 10:47:41;;;;;;;10.73;5.75;;;3.70;99.90;;;;;;4972751;28;20031;-52
2023/02/27 10:50:34;;;;;;;5.93;3.70;;;3.50;99.90;;;;;;4976716;28;20055;-51
2023/02/27 10:53:25;;;;;;;12.75;4.07;;;3.40;99.90;;;;;;4975688;28;20041;-50
2023/02/27 10:56:22;;;;;;;7.93;4.28;;;3.40;99.90;;;;;;4972992;28;20566;-49
2023/02/27 10:59:24;;;;;;;16.17;9.13;;;3.40;99.90;;;;;;4972184;28;20034;-49
2023/02/27 11:02:16;;;;;;;7.00;4.00;;;3.50;99.90;;;;;;4953825;28;20027;-45
2023/02/27 11:05:05;;;;;;;5.72;4.20;;;3.60;99.90;;;;;;4961624;28;20023;-48
2023/02/27 11:07:51;;;;;;;6.68;4.68;;;3.70;99.90;;;;;;4972426;28;20034;-46
2023/02/27 11:10:54;;;;;;;7.93;4.47;;;3.80;99.90;;;;;;4974070;28;20684;-52
2023/02/27 11:13:42;;;;;;;7.00;4.38;;;3.70;99.90;;;;;;4975250;28;20030;-49
2023/02/27 11:16:48;;;;;;;6.75;4.03;;;3.70;99.90;;;;;;4974310;28;20094;-49
2023/02/27 11:19:36;;;;;;;10.20;5.15;;;3.70;99.90;;;;;;4975939;28;20487;-50
2023/02/27 11:22:25;;;;;;;5.85;3.67;;;3.90;99.90;;;;;;4974832;28;20042;-49
2023/02/27 11:25:23;;;;;;;8.55;3.58;;;3.70;99.90;;;;;;4975491;28;20045;-50
2023/02/27 11:28:22;;;;;;;5.22;3.30;;;3.70;99.90;;;;;;4964902;28;20078;-51
2023/02/27 11:31:22;;;;;;;10.55;4.00;;;3.80;99.90;;;;;;4975380;28;20027;-54
2023/02/27 11:34:19;;;;;;;8.43;4.13;;;3.70;99.90;;;;;;4974424;28;20031;-54
2023/02/27 11:37:20;;;;;;;6.60;3.47;;;3.80;99.90;;;;;;4973045;28;20034;-47
2023/02/27 11:40:11;;;;;;;7.03;3.60;;;3.90;99.90;;;;;;4974685;28;20031;-49
2023/02/27 11:43:22;;;;;;;7.75;3.65;;;4.00;99.90;;;;;;4974979;28;20026;-50
2023/02/27 11:46:11;;;;;;;8.80;3.80;;;4.10;99.90;;;;;;4956901;28;20036;-54
2023/02/27 11:49:31;;;;;;;10.15;4.60;;;4.10;99.90;;;;;;4968282;28;20040;-47
2023/02/27 11:52:33;;;;;;;5.55;3.85;;;4.10;99.90;;;;;;4975463;28;20015;-52
2023/02/27 11:55:23;;;;;;;5.63;3.38;;;3.90;99.90;;;;;;4974977;28;20023;-50
2023/02/27 11:58:14;;;;;;;5.03;3.30;;;3.80;99.90;;;;;;4973095;28;20449;-48
2023/02/27 12:01:08;;;;;;;7.20;3.50;;;4.00;99.90;;;;;;4975032;28;20038;-45
2023/02/27 12:04:15;;;;;;;7.47;3.97;;;4.20;99.90;;;;;;4974693;28;20113;-51
2023/02/27 12:07:26;;;;;;;7.05;3.25;;;4.50;99.90;;;;;;4973780;28;20101;-53
2023/02/27 12:10:20;;;;;;;5.22;3.40;;;4.50;99.90;;;;;;4955796;29;20472;-52
2023/02/27 12:13:23;;;;;;;5.57;3.85;;;4.70;99.90;;;;;;4967109;28;20101;-49
2023/02/27 12:16:33;;;;;;;6.28;3.10;;;4.70;99.90;;;;;;4963857;28;20427;-52
2023/02/27 12:19:28;;;;;;;7.85;3.15;;;4.50;99.90;;;;;;4972592;28;20033;-47
2023/02/27 12:22:22;;;;;;;;;;;4.40;99.90;;;;;;4960408;28;20475;-51
2023/02/27 12:25:24;;;;;;;9.60;4.00;;;4.40;99.90;;;;;;4973343;28;19906;-46
2023/02/27 12:28:41;;;;;;;5.70;3.20;;;4.50;99.90;;;;;;4954820;29;20057;-48
2023/02/27 12:31:36;;;;;;;7.10;3.65;;;4.50;99.60;;;;;;4969035;28;20144;-49
2023/02/27 12:34:28;;;;;;;7.20;3.53;;;4.30;99.00;;;;;;4973369;28;20050;-52
2023/02/27 12:37:28;;;;;;;6.15;2.70;;;4.20;99.10;;;;;;4954986;28;20090;-54
2023/02/27 12:40:17;;;;;;;6.35;2.88;;;4.20;98.80;;;;;;4954307;29;20036;-50
2023/02/27 12:43:35;;;;;;;4.63;3.05;;;4.10;98.70;;;;;;4959502;28;20034;-49
2023/02/27 12:46:58;;;;;;;7.18;3.47;;;4.10;99.00;;;;;;4972235;28;20105;-47
2023/02/27 12:49:57;;;;;;;5.20;2.90;;;4.10;99.00;;;;;;4973677;28;20030;-50
2023/02/27 12:53:04;;;;;;;6.75;2.83;;;4.00;99.70;;;;;;4980956;28;20034;-48
2023/02/27 12:56:11;;;;;;;6.45;3.22;;;3.80;99.90;;;;;;4984293;28;20507;-47
2023/02/27 12:59:24;;;;;;;10.38;3.40;;;3.60;99.90;;;;;;4969917;28;20030;-49
2023/02/27 13:02:53;;;;;;;6.25;3.38;;;3.50;99.90;;;;;;4982921;28;20057;-51
2023/02/27 13:05:54;;;;;;;7.45;3.97;;;3.40;99.90;;;;;;4915309;29;20031;-52
2023/02/27 13:08:52;;;;;;;5.68;3.33;;;3.20;99.90;;;;;;4913155;29;20032;-48
2023/02/27 13:11:42;;;;;;;5.68;3.75;;;3.10;99.90;;;;;;4972379;28;20027;-48
2023/02/27 13:14:51;;;;;;;7.10;3.97;;;3.10;99.90;;;;;;4973538;28;20031;-46
2023/02/27 13:17:47;;;;;;;12.52;5.70;;;3.00;99.90;;;;;;4972518;28;20128;-50
2023/02/27 13:20:49;;;;;;;9.98;4.95;;;2.80;99.90;;;;;;4973289;28;20431;-48
2023/02/27 13:23:43;;;;;;;7.85;4.07;;;2.80;99.90;;;;;;4959873;28;20024;-56
2023/02/27 13:26:41;;;;;;;7.35;3.75;;;2.80;99.90;;;;;;4972047;28;20526;-47
2023/02/27 13:29:40;;;;;;;5.18;4.03;;;2.80;99.90;;;;;;4972513;28;20113;-52
2023/02/27 13:32:45;;;;;;;8.32;3.65;;;2.90;99.90;;;;;;4967089;28;20039;-53
2023/02/27 13:36:00;;;;;;;6.38;3.60;;;2.90;99.90;;;;;;4973979;28;20444;-54
2023/02/27 13:38:48;;;;;;;7.25;3.88;;;2.90;99.90;;;;;;4962261;28;20038;-46
2023/02/27 13:41:37;;;;;;;6.47;3.38;;;2.90;99.90;;;;;;4971690;28;20046;-53
2023/02/27 13:44:25;;;;;;;6.80;3.60;;;3.00;99.90;;;;;;4964516;28;20031;-50
2023/02/27 13:47:32;;;;;;;6.20;4.15;;;3.00;99.90;;;;;;4971846;28;20061;-49
2023/02/27 13:50:17;;;;;;;7.22;3.70;;;3.10;99.90;;;;;;4972916;28;20023;-52
2023/02/27 13:53:16;;;;;;;6.93;3.65;;;3.30;99.90;;;;;;4972632;28;20062;-46
2023/02/27 13:56:21;;;;;;;4.50;3.70;;;3.40;99.90;;;;;;4973276;28;20507;-56
2023/02/27 13:59:25;;;;;;;8.77;4.22;;;3.50;99.90;;;;;;4971751;28;20093;-50
2023/02/27 14:02:11;;;;;;;7.22;4.18;;;3.50;99.90;;;;;;4972741;28;20019;-49
2023/02/27 14:04:59;;;;;;;6.38;3.80;;;3.70;99.90;;;;;;4971776;28;20035;-48
2023/02/27 14:07:58;;;;;;;8.77;4.15;;;3.80;99.90;;;;;;4970709;28;20022;-46
2023/02/27 14:11:01;;;;;;;5.15;3.58;;;3.90;99.90;;;;;;4972195;28;20062;-47
2023/02/27 14:13:51;;;;;;;7.10;3.92;;;4.00;99.90;;;;;;4972688;28;20031;-50
2023/02/27 14:16:36;;;;;;;6.82;4.28;;;4.10;99.90;;;;;;4972003;28;20504;-50
2023/02/27 14:19:23;;;;;;;5.82;4.45;;;4.30;99.90;;;;;;4971570;28;20026;-49
2023/02/27 14:22:14;;;;;;;6.05;3.70;;;4.40;99.90;;;;;;4971760;28;20019;-45
2023/02/27 14:25:23;;;;;;;5.05;3.70;;;4.50;99.90;;;;;;4971486;28;20027;-47
2023/02/27 14:28:42;;;;;;;6.53;4.38;;;4.60;99.90;;;;;;4952416;29;20028;-50
2023/02/27 14:31:33;;;;;;;6.07;4.05;;;4.80;99.90;;;;;;4957210;28;20496;-48
2023/02/27 14:34:21;;;;;;;6.78;4.15;;;5.00;99.90;;;;;;4954576;28;20102;-48
2023/02/27 14:37:14;;;;;;;7.10;4.07;;;4.90;99.90;;;;;;4952645;29;20026;-48
2023/02/27 14:40:04;;;;;;;20.10;9.77;;;4.80;99.90;;;;;;4963203;28;20030;-51
2023/02/27 14:43:06;;;;;;;7.32;4.55;;;4.80;99.90;;;;;;4951117;29;20032;-50
2023/02/27 14:45:53;;;;;;;10.30;4.05;;;5.00;99.90;;;;;;4955245;29;20109;-51
2023/02/27 14:48:39;;;;;;;5.72;4.40;;;5.00;99.90;;;;;;4969704;28;20085;-48
2023/02/27 14:51:25;;;;;;;6.25;4.15;;;5.10;99.90;;;;;;4975318;28;20038;-51
2023/02/27 14:54:13;;;;;;;7.25;3.80;;;5.20;99.90;;;;;;4975386;28;20027;-47
2023/02/27 14:57:04;;;;;;;10.88;6.72;;;5.10;99.90;;;;;;4975453;28;20029;-49
2023/02/27 14:59:52;;;;;;;5.93;4.13;;;5.00;99.90;;;;;;4975473;28;20038;-48
2023/02/27 15:02:38;;;;;;;6.68;3.30;;;4.90;99.90;;;;;;4975009;28;20090;-53
2023/02/27 15:05:30;;;;;;;7.30;3.63;;;4.70;99.90;;;;;;4974900;28;20034;-54
2023/02/27 15:08:20;;;;;;;5.80;3.58;;;4.50;99.90;;;;;;4975662;28;20054;-47
2023/02/27 15:11:07;;;;;;;4.88;3.45;;;4.50;99.90;;;;;;4976594;28;20034;-45
2023/02/27 15:13:58;;;;;;;6.03;2.90;;;4.30;99.90;;;;;;4975502;28;20030;-47